Time;durP1;ratioP1;P1;durP2;ratioP2;P2;SDS_P1;SDS_P2;PMS_P1;PMS_P2;Temp;Humidity;BMP_temperature;BMP_pressure;BME280_temperature;BME280_humidity;BME280_pressure;Samples;Min_cycle;Max_cycle;Signal;HPM_P1;HPM_P2
2022/03/07 00:01:00;;;;;;;1.80;1.70;;;0.50;89.70;;;;;;5006420;28;20496;-69
2022/03/07 00:03:27;;;;;;;1.80;1.70;;;0.50;89.70;;;;;;5009597;28;20951;-69
2022/03/07 00:05:54;;;;;;;1.70;1.60;;;0.50;89.00;;;;;;5012233;28;20459;-69
2022/03/07 00:08:20;;;;;;;1.70;1.60;;;0.40;90.00;;;;;;5010314;28;20480;-69
2022/03/07 00:10:47;;;;;;;1.80;1.70;;;0.40;90.70;;;;;;5015606;28;20483;-69
2022/03/07 00:13:14;;;;;;;1.80;1.70;;;0.50;90.60;;;;;;5008978;28;20468;-69
2022/03/07 00:15:41;;;;;;;1.70;1.60;;;0.50;90.30;;;;;;5010760;28;20471;-70
2022/03/07 00:18:09;;;;;;;1.70;1.60;;;0.50;90.50;;;;;;5010705;28;20475;-69
2022/03/07 00:20:36;;;;;;;1.70;1.60;;;0.50;90.90;;;;;;5022840;28;20992;-70
2022/03/07 00:23:03;;;;;;;1.70;1.60;;;0.50;90.40;;;;;;5012046;28;20632;-70
2022/03/07 00:25:30;;;;;;;1.70;1.60;;;0.60;90.70;;;;;;5013767;28;20468;-69
2022/03/07 00:27:56;;;;;;;1.70;1.60;;;0.60;90.90;;;;;;5017695;28;20466;-69
2022/03/07 00:30:23;;;;;;;1.70;1.60;;;0.60;91.30;;;;;;5017695;28;20487;-70
2022/03/07 00:32:50;;;;;;;1.70;1.60;;;0.70;91.30;;;;;;5016917;28;20464;-69
2022/03/07 00:35:18;;;;;;;1.70;1.60;;;0.70;90.80;;;;;;5021898;28;20470;-70
2022/03/07 00:37:45;;;;;;;1.60;1.50;;;0.70;91.10;;;;;;5015801;28;20471;-70
2022/03/07 00:40:12;;;;;;;1.70;1.60;;;0.70;91.20;;;;;;5010497;28;21014;-69
2022/03/07 00:42:39;;;;;;;1.70;1.60;;;0.70;91.50;;;;;;5016726;28;20484;-69
2022/03/07 00:45:07;;;;;;;1.80;1.70;;;0.70;91.40;;;;;;5009222;28;20467;-70
2022/03/07 00:47:34;;;;;;;1.70;1.60;;;0.60;91.40;;;;;;5009544;28;20456;-70
2022/03/07 00:50:01;;;;;;;1.60;1.50;;;0.60;91.60;;;;;;5002704;28;20862;-70
2022/03/07 00:52:29;;;;;;;1.60;1.50;;;0.60;91.00;;;;;;5022440;28;20460;-71
2022/03/07 00:54:56;;;;;;;1.60;1.50;;;0.70;90.50;;;;;;5012112;28;20837;-72
2022/03/07 00:57:22;;;;;;;1.70;1.60;;;0.70;90.00;;;;;;5000757;28;20484;-71
2022/03/07 00:59:49;;;;;;;1.60;1.50;;;0.70;89.60;;;;;;5017380;28;20490;-72
2022/03/07 01:02:16;;;;;;;1.70;1.60;;;0.80;89.30;;;;;;5018740;28;20483;-72
2022/03/07 01:04:43;;;;;;;1.70;1.60;;;0.80;89.10;;;;;;5011886;28;20995;-72
2022/03/07 01:07:10;;;;;;;1.70;1.60;;;0.90;88.70;;;;;;5010579;28;20550;-72
2022/03/07 01:09:38;;;;;;;1.70;1.60;;;0.90;88.30;;;;;;5012190;28;20488;-72
2022/03/07 01:12:06;;;;;;;1.70;1.60;;;0.90;88.60;;;;;;5000220;28;20488;-71
2022/03/07 01:14:33;;;;;;;1.73;1.63;;;0.90;88.30;;;;;;5006871;28;20468;-71
2022/03/07 01:17:00;;;;;;;1.70;1.60;;;1.00;88.70;;;;;;5009672;28;21412;-71
2022/03/07 01:19:27;;;;;;;1.70;1.60;;;1.00;88.90;;;;;;5022078;28;20487;-71
2022/03/07 01:21:53;;;;;;;1.70;1.60;;;1.00;89.00;;;;;;5021398;28;20487;-71
2022/03/07 01:24:20;;;;;;;1.60;1.50;;;1.00;89.10;;;;;;5024109;28;21120;-70
2022/03/07 01:26:48;;;;;;;1.70;1.60;;;1.00;89.10;;;;;;5020559;28;20460;-71
2022/03/07 01:29:15;;;;;;;1.70;1.60;;;1.00;89.00;;;;;;5025187;28;20487;-71
2022/03/07 01:31:41;;;;;;;1.87;1.77;;;1.00;88.70;;;;;;5022430;28;20467;-71
2022/03/07 01:34:08;;;;;;;1.60;1.50;;;1.00;88.40;;;;;;5018031;28;20975;-71
2022/03/07 01:36:35;;;;;;;1.70;1.60;;;1.00;88.70;;;;;;5007002;28;20480;-70
2022/03/07 01:39:02;;;;;;;1.60;1.50;;;1.00;89.00;;;;;;5019649;28;20537;-71
2022/03/07 01:41:29;;;;;;;1.60;1.50;;;1.00;89.10;;;;;;5009104;28;20484;-71
2022/03/07 01:43:58;;;;;;;1.70;1.60;;;0.90;89.20;;;;;;5006040;28;20964;-71
2022/03/07 01:46:25;;;;;;;1.70;1.60;;;0.90;89.20;;;;;;5010830;28;20471;-70
2022/03/07 01:48:52;;;;;;;1.80;1.70;;;0.90;89.20;;;;;;5012269;28;20487;-70
2022/03/07 01:51:19;;;;;;;1.70;1.60;;;0.90;89.10;;;;;;5012121;28;20949;-70
2022/03/07 01:53:46;;;;;;;1.70;1.60;;;0.90;89.20;;;;;;5003053;28;20472;-71
2022/03/07 01:56:12;;;;;;;1.70;1.60;;;0.80;89.30;;;;;;5015234;28;20464;-70
2022/03/07 01:58:39;;;;;;;1.60;1.50;;;0.80;89.40;;;;;;5011976;28;20607;-71
2022/03/07 02:01:07;;;;;;;1.70;1.60;;;0.80;89.10;;;;;;5014607;28;20488;-71
2022/03/07 02:03:34;;;;;;;1.70;1.60;;;0.80;89.10;;;;;;5018757;28;20464;-71
2022/03/07 02:06:02;;;;;;;1.60;1.50;;;0.80;89.10;;;;;;5011630;28;20496;-70
2022/03/07 02:08:30;;;;;;;1.70;1.60;;;0.80;89.10;;;;;;5024241;28;20552;-71
2022/03/07 02:10:57;;;;;;;1.60;1.50;;;0.70;88.90;;;;;;5017267;28;20461;-71
2022/03/07 02:13:23;;;;;;;1.70;1.60;;;0.70;89.20;;;;;;5011068;28;20468;-71
2022/03/07 02:15:54;;;;;;;1.70;1.60;;;0.70;89.40;;;;;;5014541;28;21268;-71
2022/03/07 02:18:22;;;;;;;1.70;1.60;;;0.60;89.50;;;;;;5010995;28;20464;-70
2022/03/07 02:20:55;;;;;;;1.70;1.60;;;0.60;89.50;;;;;;5013564;28;20586;-70
2022/03/07 02:23:23;;;;;;;1.70;1.60;;;0.60;89.40;;;;;;5014639;28;20475;-71
2022/03/07 02:25:50;;;;;;;1.70;1.60;;;0.60;89.20;;;;;;5017200;28;20478;-70
2022/03/07 02:28:17;;;;;;;1.87;1.77;;;0.60;89.20;;;;;;5013308;28;21087;-70
2022/03/07 02:30:44;;;;;;;1.70;1.60;;;0.60;89.10;;;;;;5008478;28;20484;-71
2022/03/07 02:33:13;;;;;;;1.70;1.60;;;0.60;89.00;;;;;;5008872;28;20456;-71
2022/03/07 02:35:40;;;;;;;1.70;1.60;;;0.60;89.40;;;;;;4999967;28;20508;-71
2022/03/07 02:38:13;;;;;;;1.67;1.57;;;0.50;89.00;;;;;;5007304;28;20460;-70
2022/03/07 02:40:42;;;;;;;1.60;1.50;;;0.50;89.00;;;;;;5010354;28;20554;-71
2022/03/07 02:43:09;;;;;;;1.70;1.60;;;0.50;89.20;;;;;;5011311;28;20547;-70
2022/03/07 02:45:36;;;;;;;1.70;1.60;;;0.50;89.20;;;;;;5016806;28;20466;-71
2022/03/07 02:48:03;;;;;;;1.80;1.70;;;0.50;89.60;;;;;;5005554;28;20491;-71
2022/03/07 02:50:30;;;;;;;1.70;1.60;;;0.40;89.40;;;;;;5008600;28;20492;-71
2022/03/07 02:52:57;;;;;;;1.70;1.60;;;0.40;89.70;;;;;;5012290;28;20463;-71
2022/03/07 02:55:24;;;;;;;1.60;1.50;;;0.40;89.50;;;;;;4998219;28;20544;-71
2022/03/07 02:57:52;;;;;;;1.70;1.60;;;0.30;89.60;;;;;;4995651;28;21071;-70
2022/03/07 03:00:19;;;;;;;1.67;1.57;;;0.30;90.00;;;;;;5006973;28;20583;-71
2022/03/07 03:02:46;;;;;;;1.70;1.60;;;0.30;89.90;;;;;;5005630;28;20499;-71
2022/03/07 03:05:13;;;;;;;1.70;1.60;;;0.20;90.10;;;;;;5016497;28;20471;-70
2022/03/07 03:07:40;;;;;;;1.70;1.60;;;0.20;90.00;;;;;;5015454;28;20601;-70
2022/03/07 03:10:07;;;;;;;1.60;1.50;;;0.20;90.30;;;;;;5020542;28;20482;-71
2022/03/07 03:12:34;;;;;;;1.80;1.70;;;0.10;90.40;;;;;;5008036;28;20460;-70
2022/03/07 03:15:03;;;;;;;1.70;1.60;;;0.10;90.60;;;;;;5028279;28;20533;-71
2022/03/07 03:17:29;;;;;;;1.70;1.60;;;0.10;90.20;;;;;;5002613;28;20575;-70
2022/03/07 03:19:56;;;;;;;1.70;1.60;;;0.00;90.50;;;;;;5016451;28;20479;-70
2022/03/07 03:22:23;;;;;;;1.60;1.50;;;0.00;91.00;;;;;;4997892;28;20491;-71
2022/03/07 03:24:50;;;;;;;1.70;1.60;;;0.00;90.70;;;;;;5009209;28;20455;-71
2022/03/07 03:27:17;;;;;;;1.97;1.87;;;0.00;91.00;;;;;;5016089;28;20472;-71
2022/03/07 03:29:44;;;;;;;1.70;1.60;;;-0.10;90.70;;;;;;5007946;28;20492;-71
2022/03/07 03:32:12;;;;;;;1.70;1.60;;;-0.10;91.50;;;;;;5007677;28;20460;-71
2022/03/07 03:34:38;;;;;;;1.80;1.70;;;-0.10;91.90;;;;;;5009739;28;20980;-71
2022/03/07 03:37:05;;;;;;;1.80;1.70;;;-0.20;91.90;;;;;;5002573;28;20484;-72
2022/03/07 03:39:32;;;;;;;1.70;1.60;;;-0.20;92.00;;;;;;5004999;28;20487;-71
2022/03/07 03:41:59;;;;;;;1.70;1.60;;;-0.20;91.60;;;;;;5008502;28;20496;-71
2022/03/07 03:44:26;;;;;;;1.87;1.77;;;-0.20;91.40;;;;;;5012261;28;20470;-71
2022/03/07 03:46:53;;;;;;;1.70;1.60;;;-0.20;91.40;;;;;;5004271;28;20696;-71
2022/03/07 03:49:21;;;;;;;1.70;1.60;;;-0.20;91.80;;;;;;5005920;28;20916;-72
2022/03/07 03:51:48;;;;;;;1.80;1.70;;;-0.20;91.80;;;;;;5008069;28;20471;-71
2022/03/07 03:54:15;;;;;;;1.80;1.70;;;-0.20;91.80;;;;;;5018108;28;20486;-71
2022/03/07 03:56:42;;;;;;;2.43;2.23;;;-0.20;91.70;;;;;;4999779;28;20488;-71
2022/03/07 04:01:39;;;;;;;1.80;1.70;;;-0.20;91.30;;;;;;5034592;28;20504;-77
2022/03/07 04:04:06;;;;;;;1.87;1.77;;;-0.20;91.50;;;;;;5053886;28;20470;-76
2022/03/07 04:06:34;;;;;;;1.70;1.60;;;-0.20;91.00;;;;;;5049860;28;20462;-75
2022/03/07 04:09:19;;;;;;;1.70;1.60;;;-0.10;91.10;;;;;;5048442;28;20472;-75
2022/03/07 04:11:46;;;;;;;1.70;1.60;;;-0.10;91.00;;;;;;5029642;28;20459;-77
2022/03/07 04:14:14;;;;;;;1.83;1.73;;;-0.10;90.70;;;;;;5028290;28;20467;-76
2022/03/07 04:16:41;;;;;;;1.90;1.80;;;-0.10;91.10;;;;;;5018623;28;20491;-75
2022/03/07 04:19:10;;;;;;;1.90;1.80;;;-0.20;91.00;;;;;;5026773;28;20460;-75
2022/03/07 04:21:39;;;;;;;1.70;1.60;;;-0.10;90.80;;;;;;5020132;28;20742;-76
2022/03/07 04:24:07;;;;;;;1.70;1.60;;;-0.20;91.00;;;;;;5029703;28;20467;-76
2022/03/07 04:26:34;;;;;;;1.80;1.70;;;-0.10;91.30;;;;;;5026383;28;20463;-76
2022/03/07 04:29:03;;;;;;;1.70;1.60;;;-0.10;91.00;;;;;;5027277;28;20474;-73
2022/03/07 04:31:30;;;;;;;1.70;1.60;;;-0.10;90.70;;;;;;5023115;28;20492;-75
2022/03/07 04:33:56;;;;;;;1.70;1.60;;;-0.10;90.60;;;;;;5024185;28;20962;-76
2022/03/07 04:36:23;;;;;;;1.80;1.70;;;0.00;90.20;;;;;;5025311;28;20480;-76
2022/03/07 04:38:51;;;;;;;1.70;1.60;;;0.00;89.50;;;;;;5025810;28;20467;-76
2022/03/07 04:41:18;;;;;;;1.80;1.70;;;0.10;89.50;;;;;;5033213;28;20487;-75
2022/03/07 04:43:45;;;;;;;1.80;1.70;;;0.10;89.30;;;;;;5029720;28;20501;-77
2022/03/07 04:46:12;;;;;;;1.80;1.70;;;0.10;89.00;;;;;;5038082;28;20474;-75
2022/03/07 04:48:39;;;;;;;1.90;1.80;;;0.10;89.00;;;;;;5023834;28;20459;-76
2022/03/07 04:51:05;;;;;;;1.70;1.60;;;0.20;88.90;;;;;;5038181;28;20493;-76
2022/03/07 04:53:32;;;;;;;1.70;1.60;;;0.20;88.90;;;;;;5028016;28;20490;-75
2022/03/07 04:56:01;;;;;;;1.70;1.60;;;0.20;88.80;;;;;;5032897;28;20467;-75
2022/03/07 04:58:27;;;;;;;1.80;1.70;;;0.20;88.40;;;;;;5023129;28;20468;-75
2022/03/07 05:00:54;;;;;;;1.80;1.70;;;0.20;88.40;;;;;;5023583;28;20998;-75
2022/03/07 05:03:21;;;;;;;1.87;1.77;;;0.20;88.40;;;;;;5022556;28;20495;-74
2022/03/07 05:05:48;;;;;;;1.80;1.70;;;0.20;88.30;;;;;;5029945;28;20459;-74
2022/03/07 05:08:15;;;;;;;1.70;1.60;;;0.20;88.30;;;;;;5026412;28;20469;-75
2022/03/07 05:10:42;;;;;;;1.77;1.67;;;0.20;88.40;;;;;;5040255;28;20489;-74
2022/03/07 05:13:10;;;;;;;1.73;1.63;;;0.20;88.50;;;;;;5024839;28;20463;-76
2022/03/07 05:15:38;;;;;;;1.60;1.50;;;0.10;88.50;;;;;;5029849;28;20946;-74
2022/03/07 05:18:06;;;;;;;1.80;1.70;;;0.10;88.60;;;;;;5032587;28;20524;-77
2022/03/07 05:20:33;;;;;;;1.70;1.60;;;0.10;88.30;;;;;;5033332;28;20482;-76
2022/03/07 05:23:00;;;;;;;1.70;1.60;;;0.10;88.60;;;;;;5030526;28;20482;-75
2022/03/07 05:25:27;;;;;;;1.70;1.60;;;0.10;88.60;;;;;;5031009;28;20462;-76
2022/03/07 05:27:54;;;;;;;1.80;1.70;;;0.00;88.80;;;;;;5026511;28;20865;-74
2022/03/07 05:30:23;;;;;;;1.70;1.60;;;0.00;88.80;;;;;;5029036;28;20864;-76
2022/03/07 05:32:52;;;;;;;1.70;1.60;;;0.00;89.10;;;;;;5026911;28;20455;-75
2022/03/07 05:35:20;;;;;;;1.70;1.60;;;0.00;88.90;;;;;;5038864;28;20958;-77
2022/03/07 05:37:47;;;;;;;1.70;1.60;;;0.00;89.20;;;;;;5029789;28;20463;-76
2022/03/07 05:40:15;;;;;;;1.80;1.70;;;0.00;89.40;;;;;;5034947;28;20867;-76
2022/03/07 05:42:42;;;;;;;1.80;1.70;;;-0.10;89.50;;;;;;5032058;28;20870;-76
2022/03/07 05:45:11;;;;;;;1.70;1.60;;;-0.10;89.50;;;;;;5038294;28;20463;-77
2022/03/07 05:47:39;;;;;;;1.70;1.60;;;-0.10;89.30;;;;;;5030247;28;20456;-75
2022/03/07 05:50:08;;;;;;;1.90;1.80;;;-0.10;89.30;;;;;;5029990;28;20848;-76
2022/03/07 05:52:35;;;;;;;1.70;1.60;;;0.00;89.50;;;;;;5026748;28;20566;-77
2022/03/07 05:55:02;;;;;;;1.90;1.80;;;0.00;89.30;;;;;;5038149;28;20465;-76
2022/03/07 05:57:29;;;;;;;1.70;1.60;;;0.00;89.30;;;;;;5032805;28;20768;-79
2022/03/07 05:59:56;;;;;;;1.70;1.60;;;0.00;89.20;;;;;;5037886;28;20493;-76
2022/03/07 06:02:22;;;;;;;1.80;1.70;;;-0.10;89.30;;;;;;5025947;28;20521;-77
2022/03/07 06:04:51;;;;;;;1.70;1.60;;;-0.10;89.50;;;;;;5029013;28;20981;-76
2022/03/07 06:07:17;;;;;;;1.70;1.60;;;-0.10;89.30;;;;;;5037914;28;21010;-76
2022/03/07 06:09:44;;;;;;;1.80;1.70;;;-0.10;89.60;;;;;;5031815;28;20617;-75
2022/03/07 06:12:11;;;;;;;1.90;1.80;;;-0.20;89.60;;;;;;5030943;28;20471;-77
2022/03/07 06:14:38;;;;;;;1.80;1.70;;;-0.20;89.80;;;;;;5030726;28;20467;-76
2022/03/07 06:17:05;;;;;;;1.70;1.60;;;-0.20;89.80;;;;;;5028058;28;20494;-74
2022/03/07 06:19:32;;;;;;;1.80;1.70;;;-0.20;90.00;;;;;;5017956;28;20483;-77
2022/03/07 06:22:00;;;;;;;1.77;1.67;;;-0.20;89.80;;;;;;5020464;28;20460;-77
2022/03/07 06:24:28;;;;;;;1.60;1.50;;;-0.20;89.80;;;;;;5030068;28;20479;-76
2022/03/07 06:26:56;;;;;;;1.70;1.60;;;-0.10;89.70;;;;;;5013783;28;20499;-77
2022/03/07 06:29:23;;;;;;;1.70;1.60;;;-0.10;89.60;;;;;;5030634;28;20549;-78
2022/03/07 06:31:50;;;;;;;1.70;1.60;;;-0.10;89.50;;;;;;5029423;28;20467;-75
2022/03/07 06:34:17;;;;;;;1.70;1.60;;;-0.10;89.90;;;;;;5022096;28;20945;-75
2022/03/07 06:36:44;;;;;;;1.70;1.60;;;0.00;89.80;;;;;;5016502;28;20459;-72
2022/03/07 06:39:12;;;;;;;1.70;1.60;;;0.00;89.80;;;;;;5027896;28;20467;-74
2022/03/07 06:41:39;;;;;;;1.70;1.60;;;0.00;89.40;;;;;;5017450;28;20468;-74
2022/03/07 06:44:06;;;;;;;1.80;1.70;;;0.00;89.40;;;;;;5022021;28;20484;-74
2022/03/07 06:46:32;;;;;;;1.70;1.60;;;0.10;89.20;;;;;;5015718;28;20529;-75
2022/03/07 06:48:59;;;;;;;1.70;1.60;;;0.20;89.10;;;;;;5035192;28;20527;-74
2022/03/07 06:51:26;;;;;;;1.70;1.60;;;0.30;88.60;;;;;;5027314;28;20483;-73
2022/03/07 06:53:52;;;;;;;1.70;1.60;;;0.40;88.70;;;;;;5018018;28;20470;-73
2022/03/07 06:56:21;;;;;;;1.70;1.60;;;0.50;88.50;;;;;;5020001;28;20471;-72
2022/03/07 06:58:47;;;;;;;1.67;1.57;;;0.60;88.20;;;;;;5020900;28;20653;-75
2022/03/07 07:01:14;;;;;;;1.70;1.60;;;0.80;87.60;;;;;;5031911;28;20498;-73
2022/03/07 07:03:41;;;;;;;1.70;1.60;;;1.00;87.60;;;;;;5033238;28;20491;-74
2022/03/07 07:06:08;;;;;;;1.70;1.60;;;1.10;87.10;;;;;;5037551;28;20463;-75
2022/03/07 07:08:35;;;;;;;1.70;1.60;;;1.30;86.10;;;;;;5026261;28;20464;-73
2022/03/07 07:11:02;;;;;;;1.73;1.63;;;1.40;86.00;;;;;;5023769;28;20483;-74
2022/03/07 07:13:30;;;;;;;1.70;1.60;;;1.50;85.80;;;;;;5029806;28;20458;-73
2022/03/07 07:15:57;;;;;;;1.60;1.50;;;1.60;84.90;;;;;;5035487;28;20943;-74
2022/03/07 07:18:23;;;;;;;1.60;1.50;;;1.80;84.80;;;;;;5030030;28;20464;-74
2022/03/07 07:20:51;;;;;;;1.60;1.50;;;2.00;85.10;;;;;;5032080;28;20479;-74
2022/03/07 07:23:19;;;;;;;1.70;1.60;;;2.20;84.20;;;;;;5033516;28;20517;-73
2022/03/07 07:25:46;;;;;;;1.60;1.50;;;2.20;82.50;;;;;;5031296;28;20467;-74
2022/03/07 07:28:13;;;;;;;1.60;1.43;;;2.30;82.50;;;;;;5021512;28;20847;-74
2022/03/07 07:30:42;;;;;;;1.60;1.50;;;2.40;82.20;;;;;;5024954;28;20483;-73
2022/03/07 07:33:08;;;;;;;1.60;1.50;;;2.60;81.50;;;;;;5029718;28;20455;-75
2022/03/07 07:35:36;;;;;;;1.60;1.50;;;2.70;81.70;;;;;;5037193;28;20472;-74
2022/03/07 07:38:04;;;;;;;1.63;1.53;;;2.90;80.60;;;;;;5018496;28;20463;-74
2022/03/07 07:40:31;;;;;;;1.57;1.40;;;3.00;80.40;;;;;;5024410;28;20511;-74
2022/03/07 07:42:58;;;;;;;1.70;1.60;;;3.00;80.00;;;;;;5017465;28;20490;-74
2022/03/07 07:45:25;;;;;;;1.67;1.57;;;3.00;79.50;;;;;;5028100;28;20860;-74
2022/03/07 07:47:53;;;;;;;1.70;1.60;;;2.90;80.00;;;;;;5024174;28;20497;-74
2022/03/07 07:50:20;;;;;;;1.50;1.40;;;2.90;79.70;;;;;;5043598;28;20504;-74
2022/03/07 07:52:47;;;;;;;1.70;1.60;;;2.80;79.70;;;;;;5031260;28;20869;-74
2022/03/07 07:55:14;;;;;;;1.50;1.40;;;2.80;80.60;;;;;;5027849;28;20804;-74
2022/03/07 07:57:41;;;;;;;1.60;1.40;;;3.00;81.30;;;;;;5028860;28;20462;-74
2022/03/07 08:00:10;;;;;;;1.53;1.40;;;3.20;80.60;;;;;;5032369;28;20486;-74
2022/03/07 08:02:37;;;;;;;1.50;1.40;;;3.40;80.20;;;;;;5026546;28;20459;-74
2022/03/07 08:05:06;;;;;;;1.60;1.50;;;3.60;79.80;;;;;;5034513;28;20483;-74
2022/03/07 08:07:34;;;;;;;1.57;1.40;;;3.70;79.50;;;;;;5033050;28;20458;-74
2022/03/07 08:10:01;;;;;;;1.60;1.50;;;3.80;79.10;;;;;;5027119;28;20514;-73
2022/03/07 08:12:28;;;;;;;1.60;1.40;;;3.80;78.80;;;;;;5029930;28;20817;-74
2022/03/07 08:14:55;;;;;;;1.60;1.50;;;4.00;79.00;;;;;;5034401;28;20474;-73
2022/03/07 08:17:22;;;;;;;1.70;1.60;;;4.10;78.20;;;;;;5027668;28;20470;-73
2022/03/07 08:19:49;;;;;;;1.57;1.40;;;4.30;76.80;;;;;;5034198;28;20489;-73
2022/03/07 08:22:17;;;;;;;1.50;1.30;;;4.40;76.90;;;;;;5025739;28;21021;-74
2022/03/07 08:24:44;;;;;;;1.50;1.30;;;4.50;75.40;;;;;;5042110;28;20552;-74
2022/03/07 08:27:10;;;;;;;1.60;1.40;;;4.50;76.10;;;;;;5036198;28;20467;-75
2022/03/07 08:29:37;;;;;;;1.50;1.30;;;4.60;75.50;;;;;;5023024;28;20484;-75
2022/03/07 08:32:04;;;;;;;2.00;1.90;;;4.70;75.40;;;;;;5006715;28;20879;-74
2022/03/07 08:34:32;;;;;;;1.57;1.30;;;4.80;75.20;;;;;;5020014;28;20877;-75
2022/03/07 08:36:59;;;;;;;1.50;1.30;;;5.00;75.10;;;;;;5025174;28;20889;-74
2022/03/07 08:39:27;;;;;;;1.50;1.30;;;5.20;74.60;;;;;;5031904;28;20999;-74
2022/03/07 08:41:54;;;;;;;1.53;1.30;;;5.30;74.50;;;;;;5030529;28;20463;-74
2022/03/07 08:44:20;;;;;;;1.50;1.30;;;5.40;73.20;;;;;;5030665;28;20491;-74
2022/03/07 08:46:47;;;;;;;1.50;1.30;;;5.30;72.90;;;;;;5031569;28;20475;-74
2022/03/07 08:49:14;;;;;;;1.53;1.30;;;5.30;73.10;;;;;;5027724;28;20503;-74
2022/03/07 08:51:43;;;;;;;1.50;1.30;;;5.30;73.20;;;;;;5022187;28;20453;-74
2022/03/07 08:54:10;;;;;;;1.53;1.30;;;5.30;72.10;;;;;;5030689;28;20474;-73
2022/03/07 08:56:38;;;;;;;1.60;1.40;;;5.30;72.40;;;;;;5017846;28;20594;-74
2022/03/07 08:59:04;;;;;;;1.50;1.30;;;5.50;73.10;;;;;;5030167;28;20850;-74
2022/03/07 09:01:31;;;;;;;1.60;1.37;;;5.60;72.90;;;;;;5016341;28;20484;-74
2022/03/07 09:03:58;;;;;;;1.60;1.47;;;5.80;71.90;;;;;;5045187;28;20501;-74
2022/03/07 09:06:25;;;;;;;1.50;1.30;;;6.00;71.60;;;;;;5033553;28;20842;-74
2022/03/07 09:08:51;;;;;;;1.50;1.40;;;6.20;72.20;;;;;;5030785;28;20863;-73
2022/03/07 09:11:18;;;;;;;1.53;1.30;;;6.40;71.00;;;;;;5029799;28;20475;-74
2022/03/07 09:13:46;;;;;;;1.53;1.20;;;6.50;70.90;;;;;;5031461;28;20830;-74
2022/03/07 09:16:14;;;;;;;1.50;1.30;;;6.60;71.00;;;;;;5030517;28;20474;-74
2022/03/07 09:18:41;;;;;;;1.50;1.20;;;6.50;69.40;;;;;;5030328;28;20469;-74
2022/03/07 09:21:08;;;;;;;1.50;1.20;;;6.60;70.60;;;;;;5029845;28;20789;-74
2022/03/07 09:23:37;;;;;;;1.50;1.20;;;6.70;70.20;;;;;;5031418;28;20839;-74
2022/03/07 09:26:05;;;;;;;1.50;1.20;;;6.70;70.30;;;;;;5031660;28;20513;-74
2022/03/07 09:28:31;;;;;;;1.50;1.20;;;6.80;69.80;;;;;;5029627;28;20491;-74
2022/03/07 09:31:00;;;;;;;1.53;1.33;;;6.90;70.60;;;;;;5029647;28;21058;-74
2022/03/07 09:33:27;;;;;;;1.50;1.30;;;7.00;69.60;;;;;;5030045;28;20463;-74
2022/03/07 09:35:53;;;;;;;1.50;1.20;;;7.00;69.30;;;;;;5036934;28;20466;-74
2022/03/07 09:38:20;;;;;;;1.50;1.20;;;7.20;69.70;;;;;;5034325;28;20470;-74
2022/03/07 09:40:47;;;;;;;1.53;1.30;;;7.20;69.10;;;;;;5030119;28;20487;-71
2022/03/07 09:43:15;;;;;;;1.50;1.20;;;7.40;69.20;;;;;;5002587;28;20963;-73
2022/03/07 09:45:42;;;;;;;1.50;1.23;;;7.40;67.70;;;;;;5030150;28;20952;-73
2022/03/07 09:48:11;;;;;;;1.50;1.20;;;7.30;68.20;;;;;;5025331;28;20475;-71
2022/03/07 09:50:38;;;;;;;1.50;1.20;;;7.30;68.30;;;;;;5031336;28;20558;-74
2022/03/07 09:53:05;;;;;;;1.50;1.30;;;7.40;68.70;;;;;;5032171;28;20474;-74
2022/03/07 09:55:32;;;;;;;1.50;1.20;;;7.50;68.00;;;;;;5033259;28;20467;-73
2022/03/07 09:57:59;;;;;;;1.50;1.20;;;7.40;68.10;;;;;;5030847;28;20467;-73
2022/03/07 10:00:26;;;;;;;1.50;1.20;;;7.30;68.50;;;;;;5034180;28;20489;-75
2022/03/07 10:02:54;;;;;;;1.50;1.20;;;7.30;68.20;;;;;;5050623;23;20885;-71
2022/03/07 10:05:25;;;;;;;1.50;1.20;;;7.30;68.50;;;;;;5040599;28;20859;-71
2022/03/07 10:07:52;;;;;;;1.50;1.10;;;7.30;68.30;;;;;;5019849;28;20490;-71
2022/03/07 10:10:19;;;;;;;1.50;1.20;;;7.30;68.40;;;;;;5038635;28;21027;-72
2022/03/07 10:12:48;;;;;;;1.70;1.57;;;7.20;68.50;;;;;;5032638;28;20486;-71
2022/03/07 10:15:16;;;;;;;1.50;1.10;;;7.30;68.80;;;;;;5030391;28;20452;-71
2022/03/07 10:17:49;;;;;;;1.50;1.10;;;7.30;68.10;;;;;;5015724;28;20478;-71
2022/03/07 10:20:19;;;;;;;1.50;1.10;;;7.60;68.50;;;;;;5027921;28;20463;-72
2022/03/07 10:22:48;;;;;;;1.50;1.20;;;7.50;67.50;;;;;;5008334;28;20495;-71
2022/03/07 10:25:16;;;;;;;1.50;1.20;;;7.40;67.70;;;;;;5029172;28;20493;-69
2022/03/07 10:27:49;;;;;;;1.50;1.10;;;7.50;68.00;;;;;;5031301;28;20475;-72
2022/03/07 10:30:18;;;;;;;1.50;1.10;;;7.60;68.00;;;;;;5024962;28;20521;-71
2022/03/07 10:32:53;;;;;;;1.50;1.10;;;7.80;68.10;;;;;;5014858;28;20483;-69
2022/03/07 10:35:25;;;;;;;1.50;1.10;;;8.20;67.60;;;;;;5027156;28;20459;-69
2022/03/07 10:37:57;;;;;;;1.50;1.20;;;8.40;66.20;;;;;;5023236;28;20974;-70
2022/03/07 10:40:24;;;;;;;1.50;1.10;;;8.50;66.30;;;;;;5027173;28;20882;-70
2022/03/07 10:42:53;;;;;;;1.50;1.10;;;8.60;66.70;;;;;;5027989;28;20475;-69
2022/03/07 10:45:21;;;;;;;1.50;1.10;;;8.70;65.50;;;;;;5027720;28;20596;-69
2022/03/07 10:47:55;;;;;;;1.50;1.20;;;8.80;65.60;;;;;;5027380;28;20459;-70
2022/03/07 10:50:23;;;;;;;1.50;1.30;;;8.90;65.20;;;;;;5030161;28;20841;-70
2022/03/07 10:52:58;;;;;;;1.50;1.10;;;8.90;64.90;;;;;;5025866;28;20490;-69
2022/03/07 10:55:26;;;;;;;1.50;1.10;;;8.80;65.30;;;;;;5028045;28;20455;-70
2022/03/07 10:57:53;;;;;;;1.50;1.13;;;8.80;65.50;;;;;;5028966;28;20467;-70
2022/03/07 11:00:23;;;;;;;1.50;1.10;;;8.90;66.00;;;;;;5028468;28;20553;-71
2022/03/07 11:02:50;;;;;;;1.50;1.10;;;9.20;65.00;;;;;;5026533;28;20817;-73
2022/03/07 11:05:18;;;;;;;1.50;1.10;;;9.10;64.30;;;;;;5027493;28;20491;-72
2022/03/07 11:07:46;;;;;;;1.50;1.10;;;9.10;64.60;;;;;;5020402;28;20833;-72
2022/03/07 11:10:16;;;;;;;1.50;1.20;;;9.20;65.30;;;;;;5024243;28;20840;-71
2022/03/07 11:12:44;;;;;;;1.50;1.10;;;9.40;64.90;;;;;;5028425;28;20486;-72
2022/03/07 11:15:14;;;;;;;1.50;1.10;;;9.50;64.10;;;;;;5027636;28;20467;-72
2022/03/07 11:17:43;;;;;;;1.50;1.20;;;9.40;63.40;;;;;;5027990;28;20824;-72
2022/03/07 11:20:11;;;;;;;1.50;1.10;;;9.40;64.30;;;;;;5027300;28;20491;-72
2022/03/07 11:22:38;;;;;;;2.60;2.40;;;9.40;64.40;;;;;;5027250;28;20479;-72
2022/03/07 11:25:07;;;;;;;1.47;1.10;;;9.20;64.20;;;;;;5027738;28;20488;-73
2022/03/07 11:27:37;;;;;;;1.47;1.00;;;9.20;64.40;;;;;;5025648;28;20485;-72
2022/03/07 11:30:15;;;;;;;1.50;1.20;;;9.30;64.50;;;;;;5025966;28;20467;-72
2022/03/07 11:32:41;;;;;;;1.50;1.10;;;9.40;64.00;;;;;;5030625;28;20494;-71
2022/03/07 11:35:09;;;;;;;1.50;1.10;;;9.50;63.10;;;;;;5029218;28;20472;-70
2022/03/07 11:37:36;;;;;;;1.50;1.10;;;9.50;64.30;;;;;;5027828;28;20459;-72
2022/03/07 11:40:15;;;;;;;1.50;1.20;;;9.70;63.10;;;;;;5025678;28;20887;-70
2022/03/07 11:42:44;;;;;;;1.50;1.00;;;9.60;62.80;;;;;;5026768;28;20475;-70
2022/03/07 11:45:16;;;;;;;1.50;1.10;;;9.70;63.50;;;;;;5027106;28;20517;-73
2022/03/07 11:47:44;;;;;;;1.50;1.10;;;9.80;63.30;;;;;;5027419;28;20467;-71
2022/03/07 11:50:11;;;;;;;1.50;1.20;;;9.90;63.30;;;;;;5031110;28;20975;-73
2022/03/07 11:52:38;;;;;;;1.50;1.40;;;10.20;63.30;;;;;;5027153;28;20485;-73
2022/03/07 11:55:11;;;;;;;1.50;1.20;;;10.50;62.70;;;;;;5027707;28;20578;-74
2022/03/07 11:57:40;;;;;;;1.50;1.10;;;10.60;62.10;;;;;;5026921;28;20966;-73
2022/03/07 12:00:32;;;;;;;1.50;1.00;;;10.40;61.60;;;;;;5031405;28;20465;-73
2022/03/07 12:03:01;;;;;;;1.50;1.10;;;10.40;62.30;;;;;;5021975;28;20514;-72
2022/03/07 12:05:31;;;;;;;1.47;1.10;;;10.10;61.40;;;;;;5020260;28;20487;-73
2022/03/07 12:08:12;;;;;;;1.50;1.10;;;10.00;62.00;;;;;;5024264;28;20493;-72
2022/03/07 12:10:40;;;;;;;1.50;1.10;;;9.90;61.80;;;;;;5019324;28;20470;-72
2022/03/07 12:13:09;;;;;;;1.50;1.20;;;9.90;62.30;;;;;;5017754;28;20494;-71
2022/03/07 12:15:50;;;;;;;2.07;1.87;;;9.90;62.20;;;;;;5024447;28;20841;-71
2022/03/07 12:18:18;;;;;;;1.50;1.00;;;9.90;62.40;;;;;;5004305;28;20951;-69
2022/03/07 12:20:53;;;;;;;1.50;1.00;;;10.20;62.80;;;;;;5034176;28;20466;-71
2022/03/07 12:23:22;;;;;;;1.50;1.00;;;10.50;61.70;;;;;;4998153;28;20483;-71
2022/03/07 12:25:56;;;;;;;1.43;1.10;;;10.60;61.70;;;;;;5024215;28;20483;-70
2022/03/07 12:28:23;;;;;;;1.47;1.03;;;10.80;61.30;;;;;;5021189;28;20465;-70
2022/03/07 12:30:55;;;;;;;1.47;1.10;;;10.90;60.20;;;;;;5023733;28;20459;-70
2022/03/07 12:33:22;;;;;;;1.47;1.00;;;10.60;59.50;;;;;;5023864;28;20486;-70
2022/03/07 12:35:58;;;;;;;1.50;1.10;;;10.50;60.30;;;;;;5024621;28;20455;-70
2022/03/07 12:38:25;;;;;;;1.50;1.10;;;10.70;60.70;;;;;;5023900;28;20462;-72
2022/03/07 12:40:54;;;;;;;1.97;1.77;;;10.60;60.80;;;;;;5025447;28;20459;-70
2022/03/07 12:43:22;;;;;;;1.50;1.10;;;10.70;60.70;;;;;;5025992;28;20495;-72
2022/03/07 12:45:48;;;;;;;1.50;1.10;;;10.60;60.70;;;;;;5022797;28;20913;-70
2022/03/07 12:48:17;;;;;;;1.50;1.10;;;10.80;60.50;;;;;;5011039;28;21404;-71
2022/03/07 12:50:43;;;;;;;1.47;1.00;;;11.00;60.00;;;;;;5022072;28;20475;-70
2022/03/07 12:53:13;;;;;;;1.47;1.00;;;11.00;60.30;;;;;;5024963;28;20841;-69
2022/03/07 12:55:40;;;;;;;1.50;1.10;;;11.20;60.60;;;;;;5027763;28;20466;-70
2022/03/07 12:58:07;;;;;;;1.50;1.10;;;11.30;60.10;;;;;;5024840;28;20462;-70
2022/03/07 13:00:35;;;;;;;1.50;1.10;;;11.10;59.20;;;;;;5024088;28;20989;-70